sensor_id;sensor_type;location;lat;lon;timestamp;temperature;humidity
52709;DHT22;38606;52.986;6.980;2023-03-20T00:01:24;9.00;99.90
52709;DHT22;38606;52.986;6.980;2023-03-20T00:03:51;8.90;99.90
52709;DHT22;38606;52.986;6.980;2023-03-20T00:06:21;8.80;99.90
52709;DHT22;38606;52.986;6.980;2023-03-20T00:08:50;9.00;99.90
52709;DHT22;38606;52.986;6.980;2023-03-20T00:13:48;8.80;99.90
52709;DHT22;38606;52.986;6.980;2023-03-20T00:16:14;8.70;99.90
52709;DHT22;38606;52.986;6.980;2023-03-20T00:18:39;8.80;99.90
52709;DHT22;38606;52.986;6.980;2023-03-20T00:21:14;9.10;99.90
52709;DHT22;38606;52.986;6.980;2023-03-20T00:23:41;8.90;99.90
52709;DHT22;38606;52.986;6.980;2023-03-20T00:26:12;8.80;99.90
52709;DHT22;38606;52.986;6.980;2023-03-20T00:28:42;8.70;99.90
52709;DHT22;38606;52.986;6.980;2023-03-20T00:33:52;8.80;99.90
52709;DHT22;38606;52.986;6.980;2023-03-20T00:36:19;8.80;99.90
52709;DHT22;38606;52.986;6.980;2023-03-20T00:38:44;8.80;99.90
52709;DHT22;38606;52.986;6.980;2023-03-20T00:44:24;8.80;99.90
52709;DHT22;38606;52.986;6.980;2023-03-20T00:46:56;8.80;99.90
52709;DHT22;38606;52.986;6.980;2023-03-20T00:49:25;8.90;99.90
52709;DHT22;38606;52.986;6.980;2023-03-20T00:51:52;8.60;99.90
52709;DHT22;38606;52.986;6.980;2023-03-20T00:54:18;8.80;99.90
52709;DHT22;38606;52.986;6.980;2023-03-20T00:56:58;8.90;99.90
52709;DHT22;38606;52.986;6.980;2023-03-20T00:59:30;8.80;99.90
52709;DHT22;38606;52.986;6.980;2023-03-20T01:01:59;8.70;99.90
52709;DHT22;38606;52.986;6.980;2023-03-20T01:04:33;8.90;99.90
52709;DHT22;38606;52.986;6.980;2023-03-20T01:06:59;8.70;99.90
52709;DHT22;38606;52.986;6.980;2023-03-20T01:09:26;8.70;99.90
52709;DHT22;38606;52.986;6.980;2023-03-20T01:11:51;8.70;99.90
52709;DHT22;38606;52.986;6.980;2023-03-20T01:14:17;8.70;99.90
52709;DHT22;38606;52.986;6.980;2023-03-20T01:16:43;8.60;99.90
52709;DHT22;38606;52.986;6.980;2023-03-20T01:19:13;8.90;99.90
52709;DHT22;38606;52.986;6.980;2023-03-20T01:21:40;8.60;99.90
52709;DHT22;38606;52.986;6.980;2023-03-20T01:24:06;8.70;99.90
52709;DHT22;38606;52.986;6.980;2023-03-20T01:26:37;8.70;99.90
52709;DHT22;38606;52.986;6.980;2023-03-20T01:29:18;8.50;99.90
52709;DHT22;38606;52.986;6.980;2023-03-20T01:31:44;8.70;99.90
52709;DHT22;38606;52.986;6.980;2023-03-20T01:34:11;8.50;99.90
52709;DHT22;38606;52.986;6.980;2023-03-20T01:36:37;8.80;99.90
52709;DHT22;38606;52.986;6.980;2023-03-20T01:39:04;8.60;99.90
52709;DHT22;38606;52.986;6.980;2023-03-20T01:41:30;8.50;99.90
52709;DHT22;38606;52.986;6.980;2023-03-20T01:43:57;8.70;99.90
52709;DHT22;38606;52.986;6.980;2023-03-20T01:46:28;8.50;99.90
52709;DHT22;38606;52.986;6.980;2023-03-20T01:51:25;8.60;99.90
52709;DHT22;38606;52.986;6.980;2023-03-20T01:54:01;8.50;99.90
52709;DHT22;38606;52.986;6.980;2023-03-20T01:56:30;8.50;99.90
52709;DHT22;38606;52.986;6.980;2023-03-20T01:59:04;8.20;99.90
52709;DHT22;38606;52.986;6.980;2023-03-20T02:01:32;7.40;99.90
52709;DHT22;38606;52.986;6.980;2023-03-20T02:04:00;8.40;99.90
52709;DHT22;38606;52.986;6.980;2023-03-20T02:06:26;8.50;99.90
52709;DHT22;38606;52.986;6.980;2023-03-20T02:08:52;8.40;99.90
52709;DHT22;38606;52.986;6.980;2023-03-20T02:11:21;8.50;99.90
52709;DHT22;38606;52.986;6.980;2023-03-20T02:13:53;8.40;99.90
52709;DHT22;38606;52.986;6.980;2023-03-20T02:16:20;8.40;99.90
52709;DHT22;38606;52.986;6.980;2023-03-20T02:18:48;8.50;99.90
52709;DHT22;38606;52.986;6.980;2023-03-20T02:39:23;8.60;99.90
52709;DHT22;38606;52.986;6.980;2023-03-20T02:41:53;8.50;99.90
52709;DHT22;38606;52.986;6.980;2023-03-20T02:47:01;8.30;99.90
52709;DHT22;38606;52.986;6.980;2023-03-20T02:49:48;8.50;99.90
52709;DHT22;38606;52.986;6.980;2023-03-20T02:58:20;8.30;99.90
52709;DHT22;38606;52.986;6.980;2023-03-20T03:01:01;9.50;99.90
52709;DHT22;38606;52.986;6.980;2023-03-20T03:03:34;8.50;99.90
52709;DHT22;38606;52.986;6.980;2023-03-20T03:06:17;8.30;99.90
52709;DHT22;38606;52.986;6.980;2023-03-20T03:08:49;8.40;99.90
52709;DHT22;38606;52.986;6.980;2023-03-20T03:11:17;8.30;99.90
52709;DHT22;38606;52.986;6.980;2023-03-20T03:13:48;8.20;99.90
52709;DHT22;38606;52.986;6.980;2023-03-20T03:16:22;8.20;99.90
52709;DHT22;38606;52.986;6.980;2023-03-20T03:18:54;8.30;99.90
52709;DHT22;38606;52.986;6.980;2023-03-20T03:21:22;8.50;99.90
52709;DHT22;38606;52.986;6.980;2023-03-20T03:23:48;8.40;99.90
52709;DHT22;38606;52.986;6.980;2023-03-20T03:26:21;8.30;99.90
52709;DHT22;38606;52.986;6.980;2023-03-20T03:28:52;8.60;99.90
52709;DHT22;38606;52.986;6.980;2023-03-20T03:31:21;8.30;99.90
52709;DHT22;38606;52.986;6.980;2023-03-20T03:33:51;8.30;99.90
52709;DHT22;38606;52.986;6.980;2023-03-20T03:36:26;8.40;99.90
52709;DHT22;38606;52.986;6.980;2023-03-20T03:44:19;8.30;99.90
52709;DHT22;38606;52.986;6.980;2023-03-20T03:49:22;8.40;99.90
52709;DHT22;38606;52.986;6.980;2023-03-20T03:51:51;8.20;99.90
52709;DHT22;38606;52.986;6.980;2023-03-20T03:54:21;8.40;99.90
52709;DHT22;38606;52.986;6.980;2023-03-20T03:56:50;8.20;99.90
52709;DHT22;38606;52.986;6.980;2023-03-20T03:59:23;8.40;99.90
52709;DHT22;38606;52.986;6.980;2023-03-20T04:01:51;8.30;99.90
52709;DHT22;38606;52.986;6.980;2023-03-20T04:04:20;8.30;99.90
52709;DHT22;38606;52.986;6.980;2023-03-20T04:06:46;8.30;99.90
52709;DHT22;38606;52.986;6.980;2023-03-20T04:09:12;8.30;99.90
52709;DHT22;38606;52.986;6.980;2023-03-20T04:11:37;8.40;99.90
52709;DHT22;38606;52.986;6.980;2023-03-20T04:14:04;9.20;99.90
52709;DHT22;38606;52.986;6.980;2023-03-20T04:16:30;8.30;99.90
52709;DHT22;38606;52.986;6.980;2023-03-20T04:18:55;8.20;99.90
52709;DHT22;38606;52.986;6.980;2023-03-20T04:21:21;8.30;99.90
52709;DHT22;38606;52.986;6.980;2023-03-20T04:23:47;8.50;99.90
52709;DHT22;38606;52.986;6.980;2023-03-20T04:26:13;9.10;99.90
52709;DHT22;38606;52.986;6.980;2023-03-20T04:28:39;8.30;99.90
52709;DHT22;38606;52.986;6.980;2023-03-20T04:31:05;8.30;99.90
52709;DHT22;38606;52.986;6.980;2023-03-20T04:33:31;8.30;99.90
52709;DHT22;38606;52.986;6.980;2023-03-20T04:35:56;8.50;99.90
52709;DHT22;38606;52.986;6.980;2023-03-20T04:38:23;8.40;99.90
52709;DHT22;38606;52.986;6.980;2023-03-20T04:40:49;8.40;99.90
52709;DHT22;38606;52.986;6.980;2023-03-20T04:43:15;8.30;99.90
52709;DHT22;38606;52.986;6.980;2023-03-20T04:45:41;8.30;99.90
52709;DHT22;38606;52.986;6.980;2023-03-20T04:48:07;8.40;99.90
52709;DHT22;38606;52.986;6.980;2023-03-20T04:50:32;8.20;99.90
52709;DHT22;38606;52.986;6.980;2023-03-20T04:52:58;8.30;99.90
52709;DHT22;38606;52.986;6.980;2023-03-20T04:55:24;8.20;99.90
52709;DHT22;38606;52.986;6.980;2023-03-20T04:57:50;8.50;99.90
52709;DHT22;38606;52.986;6.980;2023-03-20T05:00:16;8.30;99.90
52709;DHT22;38606;52.986;6.980;2023-03-20T05:02:42;8.20;99.90
52709;DHT22;38606;52.986;6.980;2023-03-20T05:05:08;8.30;99.90
52709;DHT22;38606;52.986;6.980;2023-03-20T05:07:34;8.30;99.90
52709;DHT22;38606;52.986;6.980;2023-03-20T05:10:00;8.40;99.90
52709;DHT22;38606;52.986;6.980;2023-03-20T05:12:26;9.30;99.90
52709;DHT22;38606;52.986;6.980;2023-03-20T05:14:52;8.10;99.90
52709;DHT22;38606;52.986;6.980;2023-03-20T05:17:21;8.20;99.90
52709;DHT22;38606;52.986;6.980;2023-03-20T05:19:48;8.40;99.90
52709;DHT22;38606;52.986;6.980;2023-03-20T05:22:15;8.20;99.90
52709;DHT22;38606;52.986;6.980;2023-03-20T05:24:41;8.20;99.90
52709;DHT22;38606;52.986;6.980;2023-03-20T05:27:07;8.10;99.90
52709;DHT22;38606;52.986;6.980;2023-03-20T05:29:32;8.10;99.90
52709;DHT22;38606;52.986;6.980;2023-03-20T05:31:58;8.20;99.90
52709;DHT22;38606;52.986;6.980;2023-03-20T05:34:24;8.30;99.90
52709;DHT22;38606;52.986;6.980;2023-03-20T05:36:50;8.00;99.90
52709;DHT22;38606;52.986;6.980;2023-03-20T05:39:16;8.10;99.90
52709;DHT22;38606;52.986;6.980;2023-03-20T05:41:41;8.20;99.90
52709;DHT22;38606;52.986;6.980;2023-03-20T05:44:07;8.20;99.90
52709;DHT22;38606;52.986;6.980;2023-03-20T05:46:33;8.20;99.90
52709;DHT22;38606;52.986;6.980;2023-03-20T05:48:59;8.70;99.90
52709;DHT22;38606;52.986;6.980;2023-03-20T05:51:25;8.10;99.90
52709;DHT22;38606;52.986;6.980;2023-03-20T05:53:51;8.90;99.90
52709;DHT22;38606;52.986;6.980;2023-03-20T05:56:17;8.50;99.90
52709;DHT22;38606;52.986;6.980;2023-03-20T05:58:43;8.10;99.90
52709;DHT22;38606;52.986;6.980;2023-03-20T06:01:08;8.10;99.90
52709;DHT22;38606;52.986;6.980;2023-03-20T06:03:35;8.10;99.90
52709;DHT22;38606;52.986;6.980;2023-03-20T06:06:01;8.90;99.90
52709;DHT22;38606;52.986;6.980;2023-03-20T06:08:27;8.10;99.90
52709;DHT22;38606;52.986;6.980;2023-03-20T06:10:55;8.30;99.90
52709;DHT22;38606;52.986;6.980;2023-03-20T06:13:21;8.40;99.90
52709;DHT22;38606;52.986;6.980;2023-03-20T06:15:46;8.10;99.90
52709;DHT22;38606;52.986;6.980;2023-03-20T06:18:12;8.90;99.90
52709;DHT22;38606;52.986;6.980;2023-03-20T06:20:38;8.20;99.90
52709;DHT22;38606;52.986;6.980;2023-03-20T06:23:03;8.30;99.90
52709;DHT22;38606;52.986;6.980;2023-03-20T06:25:29;8.10;99.90
52709;DHT22;38606;52.986;6.980;2023-03-20T06:27:55;8.40;99.90
52709;DHT22;38606;52.986;6.980;2023-03-20T06:30:21;8.20;99.90
52709;DHT22;38606;52.986;6.980;2023-03-20T06:32:46;8.20;99.90
52709;DHT22;38606;52.986;6.980;2023-03-20T06:35:12;8.60;99.90
52709;DHT22;38606;52.986;6.980;2023-03-20T06:37:39;8.40;99.90
52709;DHT22;38606;52.986;6.980;2023-03-20T06:40:06;8.20;99.90
52709;DHT22;38606;52.986;6.980;2023-03-20T06:42:32;8.40;99.90
52709;DHT22;38606;52.986;6.980;2023-03-20T06:44:57;8.50;99.90
52709;DHT22;38606;52.986;6.980;2023-03-20T06:47:23;8.40;99.90
52709;DHT22;38606;52.986;6.980;2023-03-20T06:49:49;8.40;99.90
52709;DHT22;38606;52.986;6.980;2023-03-20T06:52:17;8.80;99.90
52709;DHT22;38606;52.986;6.980;2023-03-20T06:54:43;8.80;99.90
52709;DHT22;38606;52.986;6.980;2023-03-20T06:57:08;8.40;99.90
52709;DHT22;38606;52.986;6.980;2023-03-20T06:59:34;8.40;99.90
52709;DHT22;38606;52.986;6.980;2023-03-20T07:02:01;8.40;99.90
52709;DHT22;38606;52.986;6.980;2023-03-20T07:04:27;8.50;99.90
52709;DHT22;38606;52.986;6.980;2023-03-20T07:06:53;8.50;99.90
52709;DHT22;38606;52.986;6.980;2023-03-20T07:09:18;8.40;99.90
52709;DHT22;38606;52.986;6.980;2023-03-20T07:11:46;8.40;99.90
52709;DHT22;38606;52.986;6.980;2023-03-20T07:14:12;8.60;99.90
52709;DHT22;38606;52.986;6.980;2023-03-20T07:16:39;8.60;99.90
52709;DHT22;38606;52.986;6.980;2023-03-20T07:19:05;9.10;99.90
52709;DHT22;38606;52.986;6.980;2023-03-20T07:21:31;8.70;99.90
52709;DHT22;38606;52.986;6.980;2023-03-20T07:23:57;8.40;99.90
52709;DHT22;38606;52.986;6.980;2023-03-20T07:26:23;8.60;99.90
52709;DHT22;38606;52.986;6.980;2023-03-20T07:28:49;8.10;99.90
52709;DHT22;38606;52.986;6.980;2023-03-20T07:31:20;8.80;99.90
52709;DHT22;38606;52.986;6.980;2023-03-20T07:33:46;8.70;99.90
52709;DHT22;38606;52.986;6.980;2023-03-20T07:36:12;8.90;99.90
52709;DHT22;38606;52.986;6.980;2023-03-20T07:38:37;8.80;99.90
52709;DHT22;38606;52.986;6.980;2023-03-20T07:41:03;8.70;99.90
52709;DHT22;38606;52.986;6.980;2023-03-20T07:43:29;8.80;99.90
52709;DHT22;38606;52.986;6.980;2023-03-20T07:45:54;8.90;99.90
52709;DHT22;38606;52.986;6.980;2023-03-20T07:48:20;8.90;99.90
52709;DHT22;38606;52.986;6.980;2023-03-20T07:50:46;8.90;99.90
52709;DHT22;38606;52.986;6.980;2023-03-20T07:53:12;8.90;99.90
52709;DHT22;38606;52.986;6.980;2023-03-20T07:55:37;9.00;99.90
52709;DHT22;38606;52.986;6.980;2023-03-20T07:58:03;8.90;99.90
52709;DHT22;38606;52.986;6.980;2023-03-20T08:00:29;8.80;99.90
52709;DHT22;38606;52.986;6.980;2023-03-20T08:02:55;8.90;99.90
52709;DHT22;38606;52.986;6.980;2023-03-20T08:05:22;9.20;99.90
52709;DHT22;38606;52.986;6.980;2023-03-20T08:07:47;9.00;99.90
52709;DHT22;38606;52.986;6.980;2023-03-20T08:10:13;10.30;99.90
52709;DHT22;38606;52.986;6.980;2023-03-20T08:12:40;9.10;99.90
52709;DHT22;38606;52.986;6.980;2023-03-20T08:15:06;9.00;99.90
52709;DHT22;38606;52.986;6.980;2023-03-20T08:17:32;9.40;99.90
52709;DHT22;38606;52.986;6.980;2023-03-20T08:19:58;9.20;99.90
52709;DHT22;38606;52.986;6.980;2023-03-20T08:22:23;9.30;99.90
52709;DHT22;38606;52.986;6.980;2023-03-20T08:24:49;9.20;99.90
52709;DHT22;38606;52.986;6.980;2023-03-20T08:27:15;9.50;99.90
52709;DHT22;38606;52.986;6.980;2023-03-20T08:29:41;9.10;99.90
52709;DHT22;38606;52.986;6.980;2023-03-20T08:32:07;9.30;99.90
52709;DHT22;38606;52.986;6.980;2023-03-20T08:34:33;9.60;99.90
52709;DHT22;38606;52.986;6.980;2023-03-20T08:36:59;9.30;99.90
52709;DHT22;38606;52.986;6.980;2023-03-20T08:39:24;9.60;99.90
52709;DHT22;38606;52.986;6.980;2023-03-20T08:41:50;9.50;99.90
52709;DHT22;38606;52.986;6.980;2023-03-20T08:44:16;9.70;99.90
52709;DHT22;38606;52.986;6.980;2023-03-20T08:46:42;9.80;99.90
52709;DHT22;38606;52.986;6.980;2023-03-20T08:49:09;9.80;99.90
52709;DHT22;38606;52.986;6.980;2023-03-20T08:51:35;9.60;99.90
52709;DHT22;38606;52.986;6.980;2023-03-20T08:54:00;9.90;99.90
52709;DHT22;38606;52.986;6.980;2023-03-20T08:56:26;9.80;99.90
52709;DHT22;38606;52.986;6.980;2023-03-20T08:58:52;10.20;99.90
52709;DHT22;38606;52.986;6.980;2023-03-20T09:01:20;10.00;99.90
52709;DHT22;38606;52.986;6.980;2023-03-20T09:03:46;10.20;99.90
52709;DHT22;38606;52.986;6.980;2023-03-20T09:06:12;10.20;99.90
52709;DHT22;38606;52.986;6.980;2023-03-20T09:08:38;8.20;99.90
52709;DHT22;38606;52.986;6.980;2023-03-20T09:11:04;10.20;99.90
52709;DHT22;38606;52.986;6.980;2023-03-20T09:13:30;10.10;99.90
52709;DHT22;38606;52.986;6.980;2023-03-20T09:15:56;10.30;99.90
52709;DHT22;38606;52.986;6.980;2023-03-20T09:18:23;10.30;99.90
52709;DHT22;38606;52.986;6.980;2023-03-20T09:20:49;10.60;99.90
52709;DHT22;38606;52.986;6.980;2023-03-20T09:23:15;10.30;99.90
52709;DHT22;38606;52.986;6.980;2023-03-20T09:25:41;10.30;99.90
52709;DHT22;38606;52.986;6.980;2023-03-20T09:28:07;10.50;99.90
52709;DHT22;38606;52.986;6.980;2023-03-20T09:30:33;10.50;99.90
52709;DHT22;38606;52.986;6.980;2023-03-20T09:32:59;10.30;99.90
52709;DHT22;38606;52.986;6.980;2023-03-20T09:35:24;10.50;99.90
52709;DHT22;38606;52.986;6.980;2023-03-20T09:37:50;10.60;99.90
52709;DHT22;38606;52.986;6.980;2023-03-20T09:40:26;10.60;99.90
52709;DHT22;38606;52.986;6.980;2023-03-20T09:43:07;10.80;99.90
52709;DHT22;38606;52.986;6.980;2023-03-20T09:48:34;11.10;99.90
52709;DHT22;38606;52.986;6.980;2023-03-20T09:54:05;11.20;99.90
52709;DHT22;38606;52.986;6.980;2023-03-20T09:56:32;11.30;99.90
52709;DHT22;38606;52.986;6.980;2023-03-20T09:59:03;11.40;99.90
52709;DHT22;38606;52.986;6.980;2023-03-20T10:04:35;11.60;99.90
52709;DHT22;38606;52.986;6.980;2023-03-20T10:07:03;11.70;99.90
52709;DHT22;38606;52.986;6.980;2023-03-20T10:09:30;11.80;99.90
52709;DHT22;38606;52.986;6.980;2023-03-20T10:23:05;11.60;99.90
52709;DHT22;38606;52.986;6.980;2023-03-20T10:25:36;11.70;99.90
52709;DHT22;38606;52.986;6.980;2023-03-20T10:40:58;12.30;99.90
52709;DHT22;38606;52.986;6.980;2023-03-20T10:43:28;12.20;99.90
52709;DHT22;38606;52.986;6.980;2023-03-20T10:46:04;12.10;99.90
52709;DHT22;38606;52.986;6.980;2023-03-20T10:48:37;12.30;99.90
52709;DHT22;38606;52.986;6.980;2023-03-20T10:51:06;12.50;99.90
52709;DHT22;38606;52.986;6.980;2023-03-20T10:56:11;12.40;99.90
52709;DHT22;38606;52.986;6.980;2023-03-20T10:58:41;12.30;99.90
52709;DHT22;38606;52.986;6.980;2023-03-20T11:01:08;12.40;99.90
52709;DHT22;38606;52.986;6.980;2023-03-20T11:03:34;12.20;99.90
52709;DHT22;38606;52.986;6.980;2023-03-20T11:06:26;12.50;99.90
52709;DHT22;38606;52.986;6.980;2023-03-20T11:08:53;12.20;99.90
52709;DHT22;38606;52.986;6.980;2023-03-20T11:11:24;12.10;99.90
52709;DHT22;38606;52.986;6.980;2023-03-20T11:13:51;12.10;99.90
52709;DHT22;38606;52.986;6.980;2023-03-20T11:16:21;11.70;99.90
52709;DHT22;38606;52.986;6.980;2023-03-20T11:18:49;11.70;99.90
52709;DHT22;38606;52.986;6.980;2023-03-20T11:21:27;11.90;99.90
52709;DHT22;38606;52.986;6.980;2023-03-20T11:23:53;11.80;99.90
52709;DHT22;38606;52.986;6.980;2023-03-20T11:26:40;11.60;99.90
52709;DHT22;38606;52.986;6.980;2023-03-20T11:29:14;11.60;99.90
52709;DHT22;38606;52.986;6.980;2023-03-20T11:31:43;11.50;99.90
52709;DHT22;38606;52.986;6.980;2023-03-20T11:34:23;11.40;99.90
52709;DHT22;38606;52.986;6.980;2023-03-20T11:36:59;11.50;99.90
52709;DHT22;38606;52.986;6.980;2023-03-20T11:39:28;11.30;99.90
52709;DHT22;38606;52.986;6.980;2023-03-20T11:41:58;11.20;99.90
52709;DHT22;38606;52.986;6.980;2023-03-20T11:47:16;11.30;99.90
52709;DHT22;38606;52.986;6.980;2023-03-20T11:49:56;11.00;99.90
52709;DHT22;38606;52.986;6.980;2023-03-20T11:52:29;11.10;99.90
52709;DHT22;38606;52.986;6.980;2023-03-20T11:54:59;11.10;99.90
52709;DHT22;38606;52.986;6.980;2023-03-20T11:57:28;11.20;99.90
52709;DHT22;38606;52.986;6.980;2023-03-20T11:59:55;10.90;99.90
52709;DHT22;38606;52.986;6.980;2023-03-20T12:02:22;10.90;99.90
52709;DHT22;38606;52.986;6.980;2023-03-20T12:04:49;10.90;99.90
52709;DHT22;38606;52.986;6.980;2023-03-20T12:07:32;11.10;99.90
52709;DHT22;38606;52.986;6.980;2023-03-20T12:10:05;11.00;99.90
52709;DHT22;38606;52.986;6.980;2023-03-20T12:12:45;10.90;99.90
52709;DHT22;38606;52.986;6.980;2023-03-20T12:15:15;10.90;99.90
52709;DHT22;38606;52.986;6.980;2023-03-20T12:17:53;11.00;99.90
52709;DHT22;38606;52.986;6.980;2023-03-20T12:25:54;10.90;99.90
52709;DHT22;38606;52.986;6.980;2023-03-20T12:31:25;10.60;99.90
52709;DHT22;38606;52.986;6.980;2023-03-20T12:36:31;10.50;99.90
52709;DHT22;38606;52.986;6.980;2023-03-20T12:38:58;10.70;99.90
52709;DHT22;38606;52.986;6.980;2023-03-20T12:44:45;10.60;99.90
52709;DHT22;38606;52.986;6.980;2023-03-20T12:50:16;10.40;99.90
52709;DHT22;38606;52.986;6.980;2023-03-20T12:56:06;10.50;99.90
52709;DHT22;38606;52.986;6.980;2023-03-20T13:06:50;10.60;99.90
52709;DHT22;38606;52.986;6.980;2023-03-20T13:15:21;10.40;99.90
52709;DHT22;38606;52.986;6.980;2023-03-20T13:20:49;10.70;99.90
52709;DHT22;38606;52.986;6.980;2023-03-20T13:23:27;10.50;99.90
52709;DHT22;38606;52.986;6.980;2023-03-20T13:26:27;10.60;99.90
52709;DHT22;38606;52.986;6.980;2023-03-20T13:29:14;10.60;99.90
52709;DHT22;38606;52.986;6.980;2023-03-20T13:37:22;10.60;99.90
52709;DHT22;38606;52.986;6.980;2023-03-20T13:40:13;10.30;99.90
52709;DHT22;38606;52.986;6.980;2023-03-20T13:42:47;10.50;99.90
52709;DHT22;38606;52.986;6.980;2023-03-20T13:45:30;10.30;99.90
52709;DHT22;38606;52.986;6.980;2023-03-20T13:48:09;10.40;99.90
52709;DHT22;38606;52.986;6.980;2023-03-20T14:03:57;10.20;99.90
52709;DHT22;38606;52.986;6.980;2023-03-20T14:08:55;10.30;99.90
52709;DHT22;38606;52.986;6.980;2023-03-20T14:13:56;10.30;99.90
52709;DHT22;38606;52.986;6.980;2023-03-20T14:16:25;10.00;99.90
52709;DHT22;38606;52.986;6.980;2023-03-20T14:19:06;10.20;99.90
52709;DHT22;38606;52.986;6.980;2023-03-20T14:21:33;9.70;99.90
52709;DHT22;38606;52.986;6.980;2023-03-20T14:24:03;10.00;99.90
52709;DHT22;38606;52.986;6.980;2023-03-20T14:26:34;10.20;99.90
52709;DHT22;38606;52.986;6.980;2023-03-20T14:31:39;9.90;99.90
52709;DHT22;38606;52.986;6.980;2023-03-20T14:34:21;9.90;99.90
52709;DHT22;38606;52.986;6.980;2023-03-20T14:37:03;9.90;99.90
52709;DHT22;38606;52.986;6.980;2023-03-20T14:39:47;9.80;99.90
52709;DHT22;38606;52.986;6.980;2023-03-20T14:48:08;9.80;99.90
52709;DHT22;38606;52.986;6.980;2023-03-20T14:50:51;9.60;99.90
52709;DHT22;38606;52.986;6.980;2023-03-20T14:53:23;9.70;99.90
52709;DHT22;38606;52.986;6.980;2023-03-20T14:56:13;9.80;99.90
52709;DHT22;38606;52.986;6.980;2023-03-20T15:01:22;9.70;99.90
52709;DHT22;38606;52.986;6.980;2023-03-20T15:04:19;10.60;99.90
52709;DHT22;38606;52.986;6.980;2023-03-20T15:09:44;9.40;99.90
52709;DHT22;38606;52.986;6.980;2023-03-20T15:12:17;9.50;99.90
52709;DHT22;38606;52.986;6.980;2023-03-20T15:17:34;9.20;99.90
52709;DHT22;38606;52.986;6.980;2023-03-20T15:22:53;9.40;99.90
52709;DHT22;38606;52.986;6.980;2023-03-20T15:25:20;9.30;99.90
52709;DHT22;38606;52.986;6.980;2023-03-20T15:27:47;9.40;99.90
52709;DHT22;38606;52.986;6.980;2023-03-20T15:30:16;9.40;99.90
52709;DHT22;38606;52.986;6.980;2023-03-20T15:32:43;9.40;99.90
52709;DHT22;38606;52.986;6.980;2023-03-20T15:35:16;9.50;99.90
52709;DHT22;38606;52.986;6.980;2023-03-20T15:37:46;9.10;99.90
52709;DHT22;38606;52.986;6.980;2023-03-20T15:40:24;9.30;99.90
52709;DHT22;38606;52.986;6.980;2023-03-20T15:45:31;9.30;99.90
52709;DHT22;38606;52.986;6.980;2023-03-20T15:48:08;9.40;99.90
52709;DHT22;38606;52.986;6.980;2023-03-20T15:50:38;9.30;99.90
52709;DHT22;38606;52.986;6.980;2023-03-20T15:53:07;9.30;99.90
52709;DHT22;38606;52.986;6.980;2023-03-20T15:55:36;9.30;99.90
52709;DHT22;38606;52.986;6.980;2023-03-20T15:58:02;9.20;99.90
52709;DHT22;38606;52.986;6.980;2023-03-20T16:00:35;9.20;99.90
52709;DHT22;38606;52.986;6.980;2023-03-20T16:03:06;9.30;99.90
52709;DHT22;38606;52.986;6.980;2023-03-20T16:05:34;9.20;99.90
52709;DHT22;38606;52.986;6.980;2023-03-20T16:08:33;9.20;99.90
52709;DHT22;38606;52.986;6.980;2023-03-20T16:11:11;9.10;99.90
52709;DHT22;38606;52.986;6.980;2023-03-20T16:13:43;9.50;99.90
52709;DHT22;38606;52.986;6.980;2023-03-20T16:16:19;9.00;99.90
52709;DHT22;38606;52.986;6.980;2023-03-20T16:18:46;8.80;99.90
52709;DHT22;38606;52.986;6.980;2023-03-20T16:21:24;9.10;99.90
52709;DHT22;38606;52.986;6.980;2023-03-20T16:23:55;9.10;99.90
52709;DHT22;38606;52.986;6.980;2023-03-20T16:26:23;9.20;99.90
52709;DHT22;38606;52.986;6.980;2023-03-20T16:28:53;9.20;99.90
52709;DHT22;38606;52.986;6.980;2023-03-20T16:31:32;9.20;99.90
52709;DHT22;38606;52.986;6.980;2023-03-20T16:34:06;9.10;99.90
52709;DHT22;38606;52.986;6.980;2023-03-20T16:36:35;9.10;99.90
52709;DHT22;38606;52.986;6.980;2023-03-20T16:41:35;9.20;99.90
52709;DHT22;38606;52.986;6.980;2023-03-20T16:44:13;9.00;99.90
52709;DHT22;38606;52.986;6.980;2023-03-20T16:51:58;8.90;99.90
52709;DHT22;38606;52.986;6.980;2023-03-20T16:54:28;8.80;99.90
52709;DHT22;38606;52.986;6.980;2023-03-20T16:56:55;9.00;99.90
52709;DHT22;38606;52.986;6.980;2023-03-20T16:59:23;9.10;99.90
52709;DHT22;38606;52.986;6.980;2023-03-20T17:01:49;8.60;99.90
52709;DHT22;38606;52.986;6.980;2023-03-20T17:04:22;9.40;99.90
52709;DHT22;38606;52.986;6.980;2023-03-20T17:06:54;8.80;99.90
52709;DHT22;38606;52.986;6.980;2023-03-20T17:09:24;9.00;99.90
52709;DHT22;38606;52.986;6.980;2023-03-20T17:12:12;8.80;99.90
52709;DHT22;38606;52.986;6.980;2023-03-20T17:14:38;8.80;99.90
52709;DHT22;38606;52.986;6.980;2023-03-20T17:17:14;8.90;99.90
52709;DHT22;38606;52.986;6.980;2023-03-20T17:19:41;8.90;99.90
52709;DHT22;38606;52.986;6.980;2023-03-20T17:22:17;8.90;99.90
52709;DHT22;38606;52.986;6.980;2023-03-20T17:24:43;9.10;99.90
52709;DHT22;38606;52.986;6.980;2023-03-20T17:27:10;8.80;99.90
52709;DHT22;38606;52.986;6.980;2023-03-20T17:29:37;9.00;99.90
52709;DHT22;38606;52.986;6.980;2023-03-20T17:32:11;8.80;99.90
52709;DHT22;38606;52.986;6.980;2023-03-20T17:34:38;9.00;99.90
52709;DHT22;38606;52.986;6.980;2023-03-20T17:37:05;8.80;99.90
52709;DHT22;38606;52.986;6.980;2023-03-20T17:39:31;8.60;99.90
52709;DHT22;38606;52.986;6.980;2023-03-20T17:41:57;8.80;99.90
52709;DHT22;38606;52.986;6.980;2023-03-20T17:44:22;8.80;99.90
52709;DHT22;38606;52.986;6.980;2023-03-20T17:46:48;8.60;99.90
52709;DHT22;38606;52.986;6.980;2023-03-20T17:49:15;9.00;99.90
52709;DHT22;38606;52.986;6.980;2023-03-20T17:51:42;8.90;99.90
52709;DHT22;38606;52.986;6.980;2023-03-20T17:54:08;8.90;99.90
52709;DHT22;38606;52.986;6.980;2023-03-20T17:56:34;8.60;99.90
52709;DHT22;38606;52.986;6.980;2023-03-20T17:59:04;8.70;99.90
52709;DHT22;38606;52.986;6.980;2023-03-20T18:01:31;8.80;99.90
52709;DHT22;38606;52.986;6.980;2023-03-20T18:03:57;8.90;99.90
52709;DHT22;38606;52.986;6.980;2023-03-20T18:06:31;8.70;99.90
52709;DHT22;38606;52.986;6.980;2023-03-20T18:08:58;8.80;99.90
52709;DHT22;38606;52.986;6.980;2023-03-20T18:11:25;8.70;99.90
52709;DHT22;38606;52.986;6.980;2023-03-20T18:13:51;8.90;99.90
52709;DHT22;38606;52.986;6.980;2023-03-20T18:16:22;8.80;99.90
52709;DHT22;38606;52.986;6.980;2023-03-20T18:18:48;8.60;99.90
52709;DHT22;38606;52.986;6.980;2023-03-20T18:21:15;8.60;99.90
52709;DHT22;38606;52.986;6.980;2023-03-20T18:23:41;8.60;99.90
52709;DHT22;38606;52.986;6.980;2023-03-20T18:26:19;8.70;99.90
52709;DHT22;38606;52.986;6.980;2023-03-20T18:28:46;8.90;99.90
52709;DHT22;38606;52.986;6.980;2023-03-20T18:31:13;8.80;99.90
52709;DHT22;38606;52.986;6.980;2023-03-20T18:33:44;8.90;99.90
52709;DHT22;38606;52.986;6.980;2023-03-20T18:36:17;8.90;99.90
52709;DHT22;38606;52.986;6.980;2023-03-20T18:38:43;8.80;99.90
52709;DHT22;38606;52.986;6.980;2023-03-20T18:41:09;8.90;99.90
52709;DHT22;38606;52.986;6.980;2023-03-20T18:43:36;8.70;99.90
52709;DHT22;38606;52.986;6.980;2023-03-20T18:46:02;8.90;99.90
52709;DHT22;38606;52.986;6.980;2023-03-20T18:48:28;8.70;99.90
52709;DHT22;38606;52.986;6.980;2023-03-20T18:50:55;8.90;99.90